Time;durP1;ratioP1;P1;durP2;ratioP2;P2;SDS_P1;SDS_P2;PMS_P1;PMS_P2;Temp;Humidity;BMP_temperature;BMP_pressure;BME280_temperature;BME280_humidity;BME280_pressure;Samples;Min_cycle;Max_cycle;Signal;HPM_P1;HPM_P2
2022/01/09 00:02:23;;;;;;;45.42;23.48;;;9.40;99.90;;;;;;5269290;28;20034;-73
2022/01/09 00:04:53;;;;;;;51.05;24.85;;;9.40;99.90;;;;;;5268940;28;20379;-73
2022/01/09 00:07:24;;;;;;;54.97;26.58;;;9.40;99.90;;;;;;5269328;28;20056;-73
2022/01/09 00:09:56;;;;;;;61.78;29.67;;;9.30;99.90;;;;;;5268840;28;20360;-73
2022/01/09 00:12:27;;;;;;;55.88;28.33;;;9.30;99.90;;;;;;5268949;28;20024;-73
2022/01/09 00:14:58;;;;;;;58.88;28.25;;;9.40;99.90;;;;;;5268985;28;20024;-73
2022/01/09 00:17:29;;;;;;;56.50;28.15;;;9.30;99.90;;;;;;5268787;28;20066;-73
2022/01/09 00:20:00;;;;;;;62.45;29.38;;;9.30;99.90;;;;;;5269125;28;20017;-73
2022/01/09 00:22:46;;;;;;;67.47;25.83;;;9.30;99.90;;;;;;5269142;28;20102;-73
2022/01/09 00:25:19;;;;;;;61.22;27.63;;;9.40;99.90;;;;;;5269022;28;20020;-78
2022/01/09 00:27:51;;;;;;;57.63;30.83;;;9.30;99.90;;;;;;5268841;28;20058;-73
2022/01/09 00:30:23;;;;;;;59.08;27.95;;;9.30;99.90;;;;;;5268940;28;20024;-73
2022/01/09 00:32:54;;;;;;;57.60;28.42;;;9.30;99.90;;;;;;5268872;28;20379;-73
2022/01/09 00:35:25;;;;;;;59.97;27.52;;;9.30;99.90;;;;;;5268470;28;20131;-73
2022/01/09 00:37:56;;;;;;;62.42;24.77;;;9.30;99.90;;;;;;5268697;28;20055;-73
2022/01/09 00:40:27;;;;;;;62.55;24.08;;;9.20;99.90;;;;;;5268810;28;20028;-73
2022/01/09 00:42:58;;;;;;;60.38;25.15;;;9.30;99.90;;;;;;5268931;28;20056;-73
2022/01/09 00:45:28;;;;;;;52.97;22.98;;;9.20;99.90;;;;;;5268589;28;20024;-73
2022/01/09 00:47:59;;;;;;;52.83;24.25;;;9.30;99.90;;;;;;5268605;28;20523;-74
2022/01/09 00:50:30;;;;;;;57.95;24.30;;;9.30;99.90;;;;;;5268780;28;20103;-73
2022/01/09 00:53:01;;;;;;;51.45;25.05;;;9.30;99.90;;;;;;5268693;28;20100;-72
2022/01/09 00:55:33;;;;;;;62.78;26.35;;;9.30;99.90;;;;;;5268493;28;20057;-75
2022/01/09 00:58:03;;;;;;;51.85;23.63;;;9.30;99.90;;;;;;5268746;28;20013;-73
2022/01/09 01:00:35;;;;;;;48.90;24.50;;;9.20;99.90;;;;;;5268562;28;20032;-73
2022/01/09 01:03:06;;;;;;;57.78;24.75;;;9.30;99.90;;;;;;5268621;28;20506;-73
2022/01/09 01:05:37;;;;;;;48.17;23.65;;;9.30;99.90;;;;;;5266066;28;20028;-72
2022/01/09 01:08:12;;;;;;;56.00;24.65;;;9.30;99.90;;;;;;5268496;28;20091;-72
2022/01/09 01:10:50;;;;;;;49.10;25.23;;;9.40;99.90;;;;;;5270626;28;20035;-72
2022/01/09 01:13:24;;;;;;;51.65;22.50;;;9.40;99.90;;;;;;5272415;28;20012;-72
2022/01/09 01:16:04;;;;;;;43.47;19.05;;;9.40;99.90;;;;;;5272318;28;20102;-77
2022/01/09 01:18:35;;;;;;;35.85;17.65;;;9.20;99.90;;;;;;5272070;28;20031;-73
2022/01/09 01:21:06;;;;;;;40.35;19.80;;;9.30;99.90;;;;;;5272165;28;20054;-74
2022/01/09 01:23:37;;;;;;;46.42;21.30;;;9.30;99.90;;;;;;5272166;28;20036;-73
2022/01/09 01:26:08;;;;;;;51.50;22.55;;;9.30;99.90;;;;;;5272249;28;20104;-74
2022/01/09 01:28:38;;;;;;;41.70;19.70;;;9.30;99.90;;;;;;5272229;28;20093;-73
2022/01/09 01:31:11;;;;;;;45.55;23.65;;;9.30;99.90;;;;;;5271981;28;20024;-73
2022/01/09 01:33:42;;;;;;;38.90;21.85;;;9.30;99.90;;;;;;5271952;28;20425;-73
2022/01/09 01:36:13;;;;;;;44.38;22.50;;;9.30;99.90;;;;;;5271757;28;20178;-73
2022/01/09 01:38:44;;;;;;;45.50;21.40;;;9.40;99.90;;;;;;5271990;28;20016;-77
2022/01/09 01:41:14;;;;;;;35.88;18.58;;;9.40;99.90;;;;;;5271952;28;20063;-73
2022/01/09 01:43:46;;;;;;;33.03;18.17;;;9.40;99.90;;;;;;5271837;28;20372;-76
2022/01/09 01:46:17;;;;;;;41.13;20.13;;;9.30;99.90;;;;;;5271742;28;20064;-73
2022/01/09 01:48:48;;;;;;;42.33;20.52;;;9.40;99.90;;;;;;5271595;28;20459;-74
2022/01/09 01:51:20;;;;;;;37.97;18.65;;;9.30;99.90;;;;;;5271496;28;20065;-73
2022/01/09 01:53:54;;;;;;;43.40;21.08;;;9.30;99.90;;;;;;5271675;28;20012;-73
2022/01/09 01:56:25;;;;;;;47.38;22.85;;;9.30;99.90;;;;;;5271624;28;20112;-73
2022/01/09 01:58:56;;;;;;;49.90;24.17;;;9.20;99.90;;;;;;5271509;28;20102;-73
2022/01/09 02:01:27;;;;;;;52.50;24.25;;;9.20;99.90;;;;;;5271543;28;20024;-73
2022/01/09 02:03:57;;;;;;;54.40;25.77;;;9.10;99.90;;;;;;5270111;28;20024;-73
2022/01/09 02:06:28;;;;;;;51.88;25.27;;;9.10;99.90;;;;;;5271356;28;20434;-73
2022/01/09 02:08:59;;;;;;;50.13;24.50;;;9.10;99.90;;;;;;5271253;28;20028;-73
2022/01/09 02:11:31;;;;;;;52.33;23.88;;;9.10;99.90;;;;;;5271076;28;20024;-73
2022/01/09 02:14:02;;;;;;;50.65;23.95;;;9.20;99.90;;;;;;5270004;28;20028;-73
2022/01/09 02:16:35;;;;;;;53.80;24.27;;;9.20;99.90;;;;;;5271268;28;20020;-76
2022/01/09 02:19:08;;;;;;;51.88;25.85;;;9.10;99.90;;;;;;5271201;28;20020;-73
2022/01/09 02:21:41;;;;;;;52.38;25.42;;;9.20;99.90;;;;;;5270060;28;20039;-73
2022/01/09 02:24:13;;;;;;;50.90;24.77;;;9.30;99.90;;;;;;5270999;28;20032;-73
2022/01/09 02:26:44;;;;;;;53.65;25.08;;;9.30;99.90;;;;;;5270916;28;20077;-73
2022/01/09 02:29:15;;;;;;;49.65;24.92;;;9.30;99.90;;;;;;5270735;28;20039;-74
2022/01/09 02:31:45;;;;;;;54.60;27.02;;;9.30;99.90;;;;;;5270968;28;20069;-73
2022/01/09 02:34:16;;;;;;;56.05;26.10;;;9.20;99.90;;;;;;5270450;28;20024;-73
2022/01/09 02:36:47;;;;;;;58.55;27.42;;;9.20;99.90;;;;;;5270820;28;20044;-77
2022/01/09 02:39:18;;;;;;;54.38;25.52;;;9.20;99.90;;;;;;5270788;28;20016;-73
2022/01/09 02:41:49;;;;;;;56.00;25.83;;;9.30;99.90;;;;;;5270648;28;20475;-77
2022/01/09 02:44:20;;;;;;;62.70;27.90;;;9.20;99.90;;;;;;5270559;28;20028;-73
2022/01/09 02:47:05;;;;;;;55.67;27.15;;;9.20;99.90;;;;;;5270334;28;20024;-78
2022/01/09 02:49:36;;;;;;;57.33;27.08;;;9.20;99.90;;;;;;5269128;28;20039;-73
2022/01/09 02:52:21;;;;;;;62.97;29.00;;;9.20;99.90;;;;;;5270367;28;20486;-78
2022/01/09 02:55:14;;;;;;;69.47;29.00;;;9.10;99.90;;;;;;5270569;28;20471;-73
2022/01/09 02:57:50;;;;;;;57.33;27.52;;;9.20;99.90;;;;;;5270054;28;20090;-73
2022/01/09 03:00:23;;;;;;;59.25;26.27;;;9.20;99.90;;;;;;5270374;28;20106;-73
2022/01/09 03:02:54;;;;;;;60.33;26.95;;;9.20;99.90;;;;;;5270436;28;20028;-76
2022/01/09 03:05:27;;;;;;;63.95;27.10;;;9.10;99.90;;;;;;5269875;28;20036;-73
2022/01/09 03:07:57;;;;;;;63.20;27.33;;;9.20;99.90;;;;;;5268786;28;20467;-73
2022/01/09 03:10:28;;;;;;;56.25;27.15;;;9.30;99.90;;;;;;5268894;28;20077;-73
2022/01/09 03:13:00;;;;;;;62.47;27.23;;;9.20;99.90;;;;;;5268845;28;20020;-73
2022/01/09 03:15:31;;;;;;;65.30;27.23;;;9.20;99.90;;;;;;5269951;28;20028;-76
2022/01/09 03:18:02;;;;;;;57.40;26.38;;;9.20;99.90;;;;;;5269806;28;20028;-73
2022/01/09 03:20:33;;;;;;;59.08;27.25;;;9.30;99.90;;;;;;5269923;28;20012;-73
2022/01/09 03:23:05;;;;;;;55.80;27.23;;;9.20;99.90;;;;;;5269895;28;20027;-73
2022/01/09 03:25:36;;;;;;;61.00;26.88;;;9.20;99.90;;;;;;5269830;28;20099;-73
2022/01/09 03:28:07;;;;;;;58.10;28.05;;;9.20;99.90;;;;;;5269742;28;20032;-73
2022/01/09 03:30:38;;;;;;;74.07;29.90;;;9.10;99.90;;;;;;5269650;28;20035;-73
2022/01/09 03:33:08;;;;;;;71.95;30.67;;;9.10;99.90;;;;;;5269567;28;20099;-73
2022/01/09 03:35:39;;;;;;;67.47;30.98;;;9.10;99.90;;;;;;5269342;28;20055;-73
2022/01/09 03:38:12;;;;;;;66.53;31.48;;;9.10;99.90;;;;;;5269525;28;20032;-73
2022/01/09 03:40:43;;;;;;;69.22;29.27;;;9.00;99.90;;;;;;5269504;28;20047;-73
2022/01/09 03:43:13;;;;;;;67.97;27.70;;;9.10;99.90;;;;;;5269597;28;20082;-73
2022/01/09 03:45:44;;;;;;;74.50;30.90;;;9.10;99.90;;;;;;5269395;28;20016;-73
2022/01/09 03:48:15;;;;;;;73.15;30.90;;;9.00;99.90;;;;;;5269347;28;20482;-73
2022/01/09 03:50:50;;;;;;;65.40;28.20;;;9.10;99.90;;;;;;5269340;28;20475;-73
2022/01/09 03:53:21;;;;;;;73.22;29.50;;;9.10;99.90;;;;;;5269364;28;20035;-73
2022/01/09 03:55:52;;;;;;;72.00;29.08;;;9.10;99.90;;;;;;5269209;28;20024;-73
2022/01/09 03:58:23;;;;;;;70.70;30.30;;;9.10;99.90;;;;;;5269126;28;20024;-73
2022/01/09 04:00:54;;;;;;;66.78;29.73;;;8.90;99.90;;;;;;5269198;28;20463;-73
2022/01/09 04:03:25;;;;;;;65.30;26.48;;;8.90;99.90;;;;;;5268975;28;20114;-73
2022/01/09 04:06:00;;;;;;;59.35;26.67;;;8.80;99.90;;;;;;5269253;28;20054;-74
2022/01/09 04:08:33;;;;;;;59.38;25.52;;;8.80;99.90;;;;;;5269227;28;20386;-73
2022/01/09 04:11:05;;;;;;;62.20;26.15;;;8.70;99.90;;;;;;5267828;28;20024;-76
2022/01/09 04:13:39;;;;;;;56.75;26.40;;;8.70;99.90;;;;;;5269190;28;20036;-73
2022/01/09 04:16:10;;;;;;;62.85;26.52;;;8.80;99.90;;;;;;5269020;28;20020;-74
2022/01/09 04:18:41;;;;;;;59.00;26.15;;;8.70;99.90;;;;;;5269026;28;20062;-74
2022/01/09 04:21:11;;;;;;;57.90;24.90;;;8.80;99.90;;;;;;5269005;28;20028;-73
2022/01/09 04:23:42;;;;;;;56.58;26.40;;;8.80;99.90;;;;;;5268873;28;20430;-73
2022/01/09 04:26:13;;;;;;;60.50;27.15;;;9.00;99.90;;;;;;5268828;28;20019;-73
2022/01/09 04:28:44;;;;;;;57.05;26.33;;;9.00;99.90;;;;;;5268829;28;20380;-74
2022/01/09 04:31:15;;;;;;;65.60;28.52;;;9.00;99.90;;;;;;5268798;28;20032;-73
2022/01/09 04:33:46;;;;;;;64.25;27.90;;;9.00;99.90;;;;;;5268812;28;20028;-73
2022/01/09 04:36:17;;;;;;;56.85;25.10;;;8.90;99.90;;;;;;5268642;28;20542;-75
2022/01/09 04:38:48;;;;;;;59.53;25.88;;;9.00;99.90;;;;;;5268985;28;20024;-73
2022/01/09 04:41:18;;;;;;;54.88;25.98;;;9.00;99.90;;;;;;5268765;28;20028;-73
2022/01/09 04:43:50;;;;;;;53.60;24.88;;;8.90;99.90;;;;;;5268743;28;20035;-73
2022/01/09 04:46:31;;;;;;;53.28;24.80;;;8.80;99.90;;;;;;5272260;28;20024;-73
2022/01/09 04:49:02;;;;;;;50.72;23.88;;;8.90;99.90;;;;;;5272897;28;20044;-73
2022/01/09 04:51:32;;;;;;;43.38;21.25;;;8.80;99.90;;;;;;5272841;28;20039;-74
2022/01/09 04:54:04;;;;;;;41.88;20.77;;;8.80;99.90;;;;;;5272776;28;20023;-73
2022/01/09 04:56:35;;;;;;;46.33;22.67;;;8.60;99.90;;;;;;5272595;28;20021;-73
2022/01/09 04:59:06;;;;;;;46.22;22.35;;;8.70;99.90;;;;;;5272803;28;20455;-73
2022/01/09 05:01:37;;;;;;;46.03;22.67;;;8.80;99.90;;;;;;5272672;28;20024;-74
2022/01/09 05:04:07;;;;;;;45.03;21.63;;;8.80;99.90;;;;;;5272486;28;20025;-73
2022/01/09 05:06:38;;;;;;;45.65;22.58;;;8.70;99.90;;;;;;5272437;28;20371;-73
2022/01/09 05:09:10;;;;;;;52.72;24.40;;;8.70;99.90;;;;;;5272392;28;20039;-73
2022/01/09 05:11:41;;;;;;;54.10;25.75;;;8.80;99.90;;;;;;5272560;28;20028;-74
2022/01/09 05:14:12;;;;;;;52.85;25.83;;;8.80;99.90;;;;;;5272497;28;20034;-73
2022/01/09 05:16:44;;;;;;;49.38;23.95;;;8.90;99.90;;;;;;5272267;28;20024;-74
2022/01/09 05:19:19;;;;;;;45.05;20.90;;;8.70;99.90;;;;;;5272243;28;20074;-73
2022/01/09 05:21:49;;;;;;;46.25;24.13;;;8.60;99.90;;;;;;5272336;28;20056;-73
2022/01/09 05:24:20;;;;;;;48.70;22.48;;;8.70;99.90;;;;;;5272113;28;20059;-73
2022/01/09 05:26:51;;;;;;;57.15;29.02;;;8.80;99.90;;;;;;5272044;28;20015;-74
2022/01/09 05:29:22;;;;;;;47.47;23.90;;;8.70;99.90;;;;;;5270702;28;20040;-73
2022/01/09 05:31:53;;;;;;;49.15;24.00;;;8.60;99.90;;;;;;5272061;28;20045;-73
2022/01/09 05:34:24;;;;;;;44.17;23.23;;;8.60;99.90;;;;;;5271715;28;20122;-73
2022/01/09 05:36:55;;;;;;;41.08;20.45;;;8.70;99.90;;;;;;5271978;28;20048;-73
2022/01/09 05:39:26;;;;;;;39.80;19.85;;;8.70;99.90;;;;;;5271804;28;20371;-73
2022/01/09 05:41:58;;;;;;;40.65;21.77;;;8.70;99.90;;;;;;5271777;28;20452;-77
2022/01/09 05:44:28;;;;;;;39.80;20.60;;;8.60;99.90;;;;;;5271683;28;20028;-73
2022/01/09 06:07:41;;;;;;;59.42;26.63;;;8.50;99.90;;;;;;5308660;27;20393;-80
2022/01/09 06:10:13;;;;;;;52.92;23.15;;;8.60;99.90;;;;;;5308660;27;20016;-77
2022/01/09 06:12:43;;;;;;;53.78;24.00;;;8.50;99.90;;;;;;5308501;27;20027;-80
2022/01/09 06:15:14;;;;;;;51.92;22.58;;;8.60;99.90;;;;;;5341744;27;20030;-80
2022/01/09 06:17:46;;;;;;;55.88;24.40;;;8.50;99.90;;;;;;5307045;28;20027;-76
2022/01/09 07:25:11;;;;;;;89.97;37.15;;;9.10;99.90;;;;;;5308575;27;20883;-78
2022/01/09 07:27:42;;;;;;;94.32;37.63;;;9.40;99.90;;;;;;5308408;28;20044;-76
2022/01/09 07:30:13;;;;;;;93.13;36.47;;;9.60;99.90;;;;;;5308475;27;20471;-75
2022/01/09 07:32:44;;;;;;;88.68;37.60;;;9.50;99.90;;;;;;5308562;27;20060;-79
2022/01/09 07:35:14;;;;;;;85.10;35.85;;;9.60;99.90;;;;;;5308227;27;20027;-77
2022/01/09 07:37:45;;;;;;;87.22;35.55;;;9.60;99.90;;;;;;5308477;27;20022;-78
2022/01/09 07:40:17;;;;;;;85.65;36.47;;;9.40;99.90;;;;;;5298206;27;20023;-78
2022/01/09 07:42:48;;;;;;;90.63;36.88;;;9.80;99.90;;;;;;5287274;28;20019;-77
2022/01/09 07:45:25;;;;;;;80.03;34.33;;;9.60;99.90;;;;;;5287017;28;20368;-79
2022/01/09 07:47:58;;;;;;;81.53;35.72;;;9.60;99.90;;;;;;5287258;28;20397;-73
2022/01/09 07:50:29;;;;;;;77.80;32.72;;;9.40;99.90;;;;;;5287100;28;20029;-74
2022/01/09 07:53:00;;;;;;;83.38;35.00;;;9.60;99.90;;;;;;5305117;28;20023;-77
2022/01/09 07:55:30;;;;;;;83.60;36.50;;;9.90;99.90;;;;;;5308122;27;20081;-79
2022/01/09 07:58:02;;;;;;;83.85;35.47;;;9.90;99.90;;;;;;5308295;27;20019;-77
2022/01/09 08:00:33;;;;;;;76.72;33.58;;;9.90;99.90;;;;;;5308020;27;20385;-72
2022/01/09 08:03:03;;;;;;;81.80;34.65;;;9.90;99.90;;;;;;5308091;27;20015;-76
2022/01/09 08:05:34;;;;;;;83.50;36.47;;;9.90;99.90;;;;;;5307946;27;20031;-76
2022/01/09 08:08:06;;;;;;;85.63;37.42;;;9.90;99.90;;;;;;5307973;27;20020;-76
2022/01/09 08:10:37;;;;;;;78.80;34.30;;;10.20;99.90;;;;;;5307926;27;20152;-76
2022/01/09 08:13:07;;;;;;;77.13;34.85;;;10.50;99.90;;;;;;5299417;27;20519;-77
2022/01/09 08:15:38;;;;;;;77.05;35.10;;;10.80;99.90;;;;;;5291745;27;20024;-77
2022/01/09 08:18:10;;;;;;;69.72;31.70;;;11.10;99.90;;;;;;5286379;28;20466;-77
2022/01/09 08:20:41;;;;;;;68.90;33.53;;;11.20;99.90;;;;;;5305573;27;20019;-76
2022/01/09 08:23:12;;;;;;;66.60;33.25;;;11.30;99.90;;;;;;5322455;27;20035;-76
2022/01/09 08:25:43;;;;;;;67.10;29.83;;;11.70;99.90;;;;;;5316531;27;20030;-76
2022/01/09 08:28:14;;;;;;;63.75;32.50;;;11.20;99.90;;;;;;5307817;27;20374;-78
2022/01/09 08:30:45;;;;;;;68.65;32.83;;;10.60;99.90;;;;;;5293214;28;20035;-75
2022/01/09 08:33:17;;;;;;;70.90;34.45;;;10.80;99.90;;;;;;5293137;28;20027;-76
2022/01/09 08:35:48;;;;;;;72.13;33.25;;;10.70;99.90;;;;;;5293051;28;20028;-78
2022/01/09 08:38:20;;;;;;;81.03;34.97;;;10.70;99.90;;;;;;5292861;28;20027;-73
2022/01/09 08:40:51;;;;;;;74.30;34.55;;;10.70;99.90;;;;;;5292570;28;20023;-77
2022/01/09 08:43:22;;;;;;;72.78;34.92;;;10.60;99.90;;;;;;5292542;28;20031;-76
2022/01/09 08:45:53;;;;;;;83.22;36.80;;;10.70;99.90;;;;;;5291557;28;20081;-77
2022/01/09 08:48:24;;;;;;;80.65;37.05;;;10.50;99.90;;;;;;5279451;28;20459;-79
2022/01/09 08:50:55;;;;;;;76.50;34.08;;;10.80;99.90;;;;;;5286121;28;20034;-78
2022/01/09 08:53:26;;;;;;;74.95;35.13;;;10.90;99.90;;;;;;5292230;27;20677;-75
2022/01/09 08:55:57;;;;;;;87.22;36.28;;;10.90;99.90;;;;;;5284885;28;20632;-76
2022/01/09 08:58:28;;;;;;;78.40;34.38;;;11.10;99.90;;;;;;5275473;28;20028;-78
2022/01/09 09:01:00;;;;;;;72.75;33.25;;;11.00;99.90;;;;;;5271142;28;20028;-77
2022/01/09 09:03:30;;;;;;;70.45;34.60;;;11.00;99.90;;;;;;5270100;28;20023;-78
2022/01/09 09:06:01;;;;;;;70.50;34.08;;;11.40;99.90;;;;;;5271032;28;20370;-74
2022/01/09 09:08:33;;;;;;;72.88;34.00;;;11.40;99.90;;;;;;5270970;28;20024;-76
2022/01/09 09:11:06;;;;;;;72.20;34.13;;;11.40;99.90;;;;;;5271170;28;20062;-76
2022/01/09 09:13:37;;;;;;;67.13;32.80;;;12.10;99.90;;;;;;5270928;28;20072;-79
2022/01/09 09:16:09;;;;;;;63.78;32.60;;;12.50;99.90;;;;;;5270989;28;20017;-76
2022/01/09 09:18:40;;;;;;;60.78;31.70;;;12.60;99.90;;;;;;5271052;28;20024;-73
2022/01/09 09:21:11;;;;;;;65.70;32.20;;;12.30;99.90;;;;;;5271026;28;20028;-74
2022/01/09 09:23:43;;;;;;;65.68;33.10;;;12.60;99.90;;;;;;5270764;28;20102;-75
2022/01/09 09:26:16;;;;;;;63.17;32.55;;;12.50;99.90;;;;;;5271021;28;20028;-73
2022/01/09 09:28:47;;;;;;;53.80;29.85;;;12.60;99.90;;;;;;5270906;28;20012;-74
2022/01/09 09:31:18;;;;;;;63.42;31.60;;;13.20;99.90;;;;;;5271048;28;20047;-73
2022/01/09 09:33:48;;;;;;;54.17;28.65;;;13.60;99.90;;;;;;5270770;28;20135;-73
2022/01/09 09:36:21;;;;;;;53.58;28.27;;;13.60;99.90;;;;;;5269967;28;20347;-73
2022/01/09 09:38:53;;;;;;;50.88;28.75;;;14.50;99.90;;;;;;5270882;28;20047;-73
2022/01/09 09:41:24;;;;;;;50.58;29.20;;;14.20;99.90;;;;;;5270711;28;20024;-73
2022/01/09 09:43:55;;;;;;;49.20;28.60;;;14.10;99.90;;;;;;5270656;28;20091;-73
2022/01/09 09:46:26;;;;;;;48.83;27.65;;;13.50;99.90;;;;;;5270725;28;20031;-73
2022/01/09 09:48:57;;;;;;;51.80;27.85;;;14.50;99.90;;;;;;5269242;28;20099;-75
2022/01/09 09:51:29;;;;;;;47.40;27.60;;;14.60;99.90;;;;;;5270479;28;20115;-72
2022/01/09 09:54:00;;;;;;;63.80;29.08;;;14.50;99.90;;;;;;5270430;28;20051;-72
2022/01/09 09:56:31;;;;;;;53.20;26.35;;;14.40;99.90;;;;;;5270317;28;20107;-71
2022/01/09 09:59:02;;;;;;;50.72;26.05;;;15.20;99.90;;;;;;5270877;28;20363;-75
2022/01/09 10:01:35;;;;;;;52.33;27.98;;;15.40;99.90;;;;;;5271095;28;20166;-74
2022/01/09 10:04:09;;;;;;;46.35;27.98;;;15.10;99.90;;;;;;5270977;28;20110;-75
2022/01/09 10:06:42;;;;;;;53.00;27.67;;;15.00;99.90;;;;;;5270893;28;20027;-74
2022/01/09 10:09:19;;;;;;;57.78;28.92;;;14.90;99.90;;;;;;5270917;28;20051;-76
2022/01/09 10:11:56;;;;;;;54.38;28.45;;;15.30;99.90;;;;;;5270532;28;20024;-75
2022/01/09 10:14:33;;;;;;;54.83;29.15;;;15.30;99.90;;;;;;5270156;28;20116;-74
2022/01/09 10:17:12;;;;;;;56.92;29.67;;;15.30;99.90;;;;;;5270509;28;20055;-75
2022/01/09 10:19:48;;;;;;;50.50;28.42;;;15.40;99.90;;;;;;5270743;28;20031;-77
2022/01/09 10:22:30;;;;;;;47.60;29.33;;;15.40;99.90;;;;;;5270779;28;20022;-76
2022/01/09 10:25:20;;;;;;;53.78;29.75;;;14.80;99.90;;;;;;5269561;28;20048;-73
2022/01/09 10:28:01;;;;;;;;;;;15.00;99.90;;;;;;5270404;28;20028;-73
2022/01/09 10:30:41;;;;;;;50.60;27.85;;;15.50;99.90;;;;;;5267599;28;19904;-73
2022/01/09 10:33:25;;;;;;;40.88;24.83;;;15.40;99.90;;;;;;5268138;28;20609;-74
2022/01/09 10:35:56;;;;;;;36.90;22.08;;;15.80;99.90;;;;;;5269266;28;20100;-73
2022/01/09 10:38:29;;;;;;;31.45;19.13;;;15.60;99.90;;;;;;5269383;28;20032;-77
2022/01/09 10:41:03;;;;;;;30.80;19.35;;;16.20;99.90;;;;;;5269466;28;20016;-74
2022/01/09 10:43:36;;;;;;;54.67;29.00;;;16.60;99.90;;;;;;5268697;28;20028;-73
2022/01/09 10:46:08;;;;;;;56.92;30.52;;;16.10;99.90;;;;;;5268663;28;20021;-73
2022/01/09 10:48:42;;;;;;;49.58;29.27;;;16.30;99.90;;;;;;5269144;28;20371;-74
2022/01/09 10:51:14;;;;;;;50.25;29.67;;;16.20;99.90;;;;;;5267983;28;20494;-74
2022/01/09 10:53:45;;;;;;;53.83;30.27;;;16.10;99.90;;;;;;5269029;28;20051;-79
2022/01/09 10:56:20;;;;;;;36.33;20.40;;;16.30;99.90;;;;;;5268988;28;20024;-77
2022/01/09 10:58:54;;;;;;;29.08;17.08;;;15.50;99.90;;;;;;5269151;28;20039;-77
2022/01/09 11:01:33;;;;;;;25.85;16.23;;;15.30;99.90;;;;;;5269153;28;20058;-73
2022/01/09 11:04:07;;;;;;;26.50;16.00;;;15.20;99.90;;;;;;5269424;28;20031;-75
2022/01/09 11:06:43;;;;;;;31.05;17.58;;;15.60;99.90;;;;;;5275400;28;20535;-74
2022/01/09 11:09:14;;;;;;;31.17;18.23;;;15.00;99.90;;;;;;5277418;28;20071;-74
2022/01/09 11:11:48;;;;;;;31.70;17.33;;;15.10;99.90;;;;;;5281372;28;20017;-73
2022/01/09 11:14:21;;;;;;;29.88;17.58;;;14.90;99.90;;;;;;5269137;28;20099;-73
2022/01/09 11:16:54;;;;;;;36.40;20.85;;;15.70;99.90;;;;;;5269397;28;20024;-74
2022/01/09 11:19:25;;;;;;;28.88;17.27;;;15.40;99.90;;;;;;5269191;28;20485;-72
2022/01/09 11:22:01;;;;;;;29.80;17.55;;;14.70;99.90;;;;;;5269285;28;20070;-78
2022/01/09 11:25:10;;;;;;;30.35;17.02;;;14.60;99.90;;;;;;5268992;28;20491;-77
2022/01/09 11:28:12;;;;;;;26.73;16.00;;;15.00;99.90;;;;;;5269356;28;20106;-75
2022/01/09 11:30:59;;;;;;;32.47;18.40;;;14.70;99.90;;;;;;5253658;28;20028;-75
2022/01/09 11:33:46;;;;;;;32.92;18.17;;;15.10;99.90;;;;;;5269030;28;20046;-72
2022/01/09 11:36:44;;;;;;;26.42;18.02;;;14.60;99.90;;;;;;5269120;28;20036;-72
2022/01/09 11:39:31;;;;;;;33.20;19.33;;;14.40;99.90;;;;;;5269089;28;20039;-72
2022/01/09 11:42:10;;;;;;;31.73;19.05;;;14.70;99.90;;;;;;5269090;28;20392;-72
2022/01/09 11:44:53;;;;;;;33.85;19.50;;;14.40;99.90;;;;;;5267786;28;20035;-73
2022/01/09 11:47:25;;;;;;;31.67;17.02;;;15.30;99.90;;;;;;5268918;28;20066;-76
2022/01/09 11:49:58;;;;;;;27.08;16.67;;;14.70;99.90;;;;;;5268917;28;20020;-73
2022/01/09 11:52:30;;;;;;;28.25;17.13;;;14.40;99.90;;;;;;5268842;28;20432;-74
2022/01/09 11:55:06;;;;;;;27.92;18.23;;;14.40;99.90;;;;;;5268822;28;20032;-74
2022/01/09 11:57:46;;;;;;;37.20;19.10;;;14.20;99.90;;;;;;5268873;28;20028;-74
2022/01/09 12:00:35;;;;;;;37.10;21.65;;;14.00;99.90;;;;;;5270810;28;20028;-75
2022/01/09 12:03:27;;;;;;;53.85;30.15;;;14.10;99.90;;;;;;5272806;28;20043;-72
2022/01/09 12:06:10;;;;;;;38.90;24.85;;;13.90;99.90;;;;;;5272762;28;20047;-73
2022/01/09 12:08:54;;;;;;;37.47;21.00;;;14.00;99.90;;;;;;5272626;28;20016;-79
2022/01/09 12:12:03;;;;;;;31.85;19.25;;;13.60;99.90;;;;;;5271756;28;20026;-80
2022/01/09 12:15:03;;;;;;;37.47;21.20;;;13.60;99.90;;;;;;5237393;28;20040;-78
2022/01/09 12:17:34;;;;;;;35.50;20.13;;;13.70;99.90;;;;;;5271084;28;20036;-75
2022/01/09 12:20:14;;;;;;;37.15;20.80;;;13.90;99.90;;;;;;5272442;28;20261;-81
2022/01/09 12:22:51;;;;;;;35.92;20.13;;;13.70;99.90;;;;;;5272047;28;20032;-73
2022/01/09 12:25:25;;;;;;;41.83;24.20;;;13.60;99.90;;;;;;5272463;28;20032;-74
2022/01/09 12:28:25;;;;;;;44.95;24.05;;;13.50;99.90;;;;;;5272373;28;20024;-73
2022/01/09 12:30:59;;;;;;;47.15;26.65;;;13.50;99.90;;;;;;5272309;28;20027;-75
2022/01/09 12:33:34;;;;;;;68.18;32.75;;;13.20;99.90;;;;;;5272240;28;20043;-74
2022/01/09 12:36:11;;;;;;;75.35;36.50;;;12.90;99.90;;;;;;5272232;28;20032;-76
2022/01/09 12:38:45;;;;;;;78.57;36.97;;;12.70;99.90;;;;;;5272169;28;20032;-73
2022/01/09 12:41:20;;;;;;;73.32;35.10;;;12.50;99.90;;;;;;5272165;28;20072;-75
2022/01/09 12:44:00;;;;;;;78.70;36.70;;;12.40;99.90;;;;;;5272241;28;20432;-74
2022/01/09 12:46:33;;;;;;;81.45;37.38;;;12.40;99.90;;;;;;5272033;28;20047;-76
2022/01/09 12:49:08;;;;;;;80.55;38.45;;;12.40;99.90;;;;;;5271990;28;20031;-74
2022/01/09 12:51:46;;;;;;;80.28;38.72;;;12.40;99.90;;;;;;5271998;28;20446;-72
2022/01/09 12:54:17;;;;;;;82.40;38.35;;;12.30;99.90;;;;;;5271565;28;20131;-74
2022/01/09 12:56:48;;;;;;;89.93;39.75;;;12.30;99.90;;;;;;5271971;28;20024;-74
2022/01/09 12:59:22;;;;;;;84.18;38.78;;;12.40;99.90;;;;;;5271944;28;20467;-74
2022/01/09 13:01:53;;;;;;;91.05;39.75;;;11.90;99.90;;;;;;5272001;28;20459;-74
2022/01/09 13:04:24;;;;;;;92.00;40.88;;;12.20;99.90;;;;;;5271614;28;20032;-75
2022/01/09 13:06:57;;;;;;;80.38;38.22;;;12.10;99.90;;;;;;5271501;28;20058;-77
2022/01/09 13:09:31;;;;;;;88.13;40.35;;;12.00;99.90;;;;;;5271635;28;20036;-80
2022/01/09 13:12:04;;;;;;;86.00;38.95;;;11.70;99.90;;;;;;5270349;28;20161;-77
2022/01/09 13:14:44;;;;;;;92.07;42.80;;;11.70;99.90;;;;;;5271225;28;20478;-79
2022/01/09 13:17:19;;;;;;;;;;;11.80;99.90;;;;;;5271991;28;20016;-78
2022/01/09 13:19:51;;;;;;;96.32;42.35;;;11.80;99.90;;;;;;5271982;28;19906;-74
2022/01/09 13:22:22;;;;;;;96.28;42.13;;;11.70;99.90;;;;;;5271470;28;20371;-79
2022/01/09 13:25:07;;;;;;;101.10;43.53;;;11.60;99.90;;;;;;5271324;28;20044;-75
2022/01/09 13:27:38;;;;;;;95.13;44.00;;;11.30;99.90;;;;;;5270970;28;20059;-73
2022/01/09 13:30:09;;;;;;;99.15;43.55;;;11.30;99.90;;;;;;5271081;28;20036;-77
2022/01/09 13:32:40;;;;;;;98.13;44.53;;;11.60;99.90;;;;;;5271002;28;20023;-78
2022/01/09 13:35:11;;;;;;;102.38;43.38;;;11.40;99.90;;;;;;5271312;28;20027;-76
2022/01/09 13:37:42;;;;;;;97.72;44.00;;;11.00;99.90;;;;;;5270895;28;20482;-77
2022/01/09 13:40:13;;;;;;;100.53;43.88;;;11.10;99.90;;;;;;5270909;28;20060;-77
2022/01/09 13:42:45;;;;;;;96.40;43.70;;;11.30;99.90;;;;;;5270727;28;20362;-75
2022/01/09 13:45:21;;;;;;;98.90;43.30;;;11.40;99.90;;;;;;5270658;28;20082;-78
2022/01/09 13:47:57;;;;;;;101.95;45.17;;;11.10;99.90;;;;;;5270969;28;20027;-78
2022/01/09 13:50:35;;;;;;;101.82;45.88;;;10.90;99.90;;;;;;5270451;28;20038;-78
2022/01/09 13:53:11;;;;;;;111.05;45.58;;;11.00;99.90;;;;;;5270606;28;20411;-74
2022/01/09 13:55:42;;;;;;;113.85;46.13;;;11.00;99.90;;;;;;5270491;28;20031;-73
2022/01/09 13:58:17;;;;;;;116.07;48.80;;;11.00;99.90;;;;;;5270623;28;20017;-74
2022/01/09 14:00:49;;;;;;;117.75;45.25;;;10.90;99.90;;;;;;5270547;28;20101;-74
2022/01/09 14:03:27;;;;;;;109.35;44.83;;;11.00;99.90;;;;;;5270505;28;20498;-78
2022/01/09 14:05:58;;;;;;;100.35;45.75;;;10.80;99.90;;;;;;5270288;28;20020;-79
2022/01/09 14:08:37;;;;;;;100.03;44.65;;;10.70;99.90;;;;;;5269737;28;20028;-77
2022/01/09 14:11:08;;;;;;;108.72;45.60;;;10.80;99.90;;;;;;5270417;28;20024;-77
2022/01/09 14:13:40;;;;;;;112.95;44.83;;;11.00;99.90;;;;;;5270147;28;20475;-76
2022/01/09 14:16:13;;;;;;;108.18;45.30;;;10.60;99.90;;;;;;5270212;28;20024;-77
2022/01/09 14:18:53;;;;;;;105.05;45.70;;;10.80;99.90;;;;;;5270084;28;20032;-74
2022/01/09 14:21:24;;;;;;;;;;;10.70;99.90;;;;;;5270605;28;20028;-73
2022/01/09 14:24:05;;;;;;;113.07;45.58;;;10.60;99.90;;;;;;5269354;28;19935;-72
2022/01/09 14:26:36;;;;;;;111.10;45.58;;;10.70;99.90;;;;;;5270113;28;20107;-72
2022/01/09 14:29:06;;;;;;;112.28;47.53;;;10.60;99.90;;;;;;5270082;28;20432;-72
2022/01/09 14:31:37;;;;;;;108.45;46.13;;;10.40;99.90;;;;;;5272780;28;20054;-73